sensor_id;sensor_type;location;lat;lon;timestamp;temperature;humidity
26909;DHT22;14477;51.038;4.588;2023-08-06T00:00:23;17.20;99.90
26909;DHT22;14477;51.038;4.588;2023-08-06T00:02:49;17.20;99.90
26909;DHT22;14477;51.038;4.588;2023-08-06T00:05:16;17.20;99.90
26909;DHT22;14477;51.038;4.588;2023-08-06T00:07:48;17.20;99.90
26909;DHT22;14477;51.038;4.588;2023-08-06T00:10:14;17.30;99.90
26909;DHT22;14477;51.038;4.588;2023-08-06T00:12:40;17.20;99.90
26909;DHT22;14477;51.038;4.588;2023-08-06T00:15:06;17.20;99.90
26909;DHT22;14477;51.038;4.588;2023-08-06T00:17:32;17.20;99.90
26909;DHT22;14477;51.038;4.588;2023-08-06T00:19:58;17.20;99.90
26909;DHT22;14477;51.038;4.588;2023-08-06T00:22:30;17.20;99.90
26909;DHT22;14477;51.038;4.588;2023-08-06T00:24:55;17.20;99.90
26909;DHT22;14477;51.038;4.588;2023-08-06T00:27:23;17.20;99.90
26909;DHT22;14477;51.038;4.588;2023-08-06T00:29:49;17.20;99.90
26909;DHT22;14477;51.038;4.588;2023-08-06T00:32:14;17.20;99.90
26909;DHT22;14477;51.038;4.588;2023-08-06T00:34:40;17.20;99.90
26909;DHT22;14477;51.038;4.588;2023-08-06T00:37:06;17.20;99.90
26909;DHT22;14477;51.038;4.588;2023-08-06T00:39:32;17.20;99.90
26909;DHT22;14477;51.038;4.588;2023-08-06T00:41:57;17.20;99.90
26909;DHT22;14477;51.038;4.588;2023-08-06T00:44:24;17.20;99.90
26909;DHT22;14477;51.038;4.588;2023-08-06T00:46:50;17.20;99.90
26909;DHT22;14477;51.038;4.588;2023-08-06T00:49:16;17.20;99.90
26909;DHT22;14477;51.038;4.588;2023-08-06T00:51:42;17.20;99.90
26909;DHT22;14477;51.038;4.588;2023-08-06T00:54:09;17.20;99.90
26909;DHT22;14477;51.038;4.588;2023-08-06T00:56:35;17.30;99.90
26909;DHT22;14477;51.038;4.588;2023-08-06T00:59:05;17.30;99.90
26909;DHT22;14477;51.038;4.588;2023-08-06T01:01:31;17.20;99.90
26909;DHT22;14477;51.038;4.588;2023-08-06T01:03:57;17.20;99.90
26909;DHT22;14477;51.038;4.588;2023-08-06T01:06:49;17.30;99.90
26909;DHT22;14477;51.038;4.588;2023-08-06T01:09:30;17.30;99.90
26909;DHT22;14477;51.038;4.588;2023-08-06T01:14:37;17.30;99.90
26909;DHT22;14477;51.038;4.588;2023-08-06T01:17:06;17.30;99.90
26909;DHT22;14477;51.038;4.588;2023-08-06T01:19:33;17.30;99.90
26909;DHT22;14477;51.038;4.588;2023-08-06T01:21:58;17.30;99.90
26909;DHT22;14477;51.038;4.588;2023-08-06T01:24:24;17.30;99.90
26909;DHT22;14477;51.038;4.588;2023-08-06T01:27:14;17.30;99.90
26909;DHT22;14477;51.038;4.588;2023-08-06T01:29:51;17.30;99.90
26909;DHT22;14477;51.038;4.588;2023-08-06T01:32:22;17.30;99.90
26909;DHT22;14477;51.038;4.588;2023-08-06T01:34:50;17.30;99.90
26909;DHT22;14477;51.038;4.588;2023-08-06T01:37:16;17.30;99.90
26909;DHT22;14477;51.038;4.588;2023-08-06T01:39:43;17.30;99.90
26909;DHT22;14477;51.038;4.588;2023-08-06T01:42:09;17.30;99.90
26909;DHT22;14477;51.038;4.588;2023-08-06T01:44:35;17.30;99.90
26909;DHT22;14477;51.038;4.588;2023-08-06T01:47:00;17.30;99.90
26909;DHT22;14477;51.038;4.588;2023-08-06T01:49:26;17.30;99.90
26909;DHT22;14477;51.038;4.588;2023-08-06T01:51:52;17.30;99.90
26909;DHT22;14477;51.038;4.588;2023-08-06T01:54:17;17.30;99.90
26909;DHT22;14477;51.038;4.588;2023-08-06T01:56:43;17.30;99.90
26909;DHT22;14477;51.038;4.588;2023-08-06T01:59:09;17.30;99.90
26909;DHT22;14477;51.038;4.588;2023-08-06T02:01:34;17.30;99.90
26909;DHT22;14477;51.038;4.588;2023-08-06T02:04:00;17.40;99.90
26909;DHT22;14477;51.038;4.588;2023-08-06T02:06:26;17.40;99.90
26909;DHT22;14477;51.038;4.588;2023-08-06T02:08:51;17.40;99.90
26909;DHT22;14477;51.038;4.588;2023-08-06T02:11:17;17.40;99.90
26909;DHT22;14477;51.038;4.588;2023-08-06T02:13:43;17.40;99.90
26909;DHT22;14477;51.038;4.588;2023-08-06T02:16:09;17.40;99.90
26909;DHT22;14477;51.038;4.588;2023-08-06T02:18:35;17.40;99.90
26909;DHT22;14477;51.038;4.588;2023-08-06T02:21:00;17.40;99.90
26909;DHT22;14477;51.038;4.588;2023-08-06T02:23:27;17.40;99.90
26909;DHT22;14477;51.038;4.588;2023-08-06T02:25:58;17.40;99.90
26909;DHT22;14477;51.038;4.588;2023-08-06T02:28:23;17.40;99.90
26909;DHT22;14477;51.038;4.588;2023-08-06T02:30:50;17.40;99.90
26909;DHT22;14477;51.038;4.588;2023-08-06T02:33:16;17.40;99.90
26909;DHT22;14477;51.038;4.588;2023-08-06T02:35:42;17.40;99.90
26909;DHT22;14477;51.038;4.588;2023-08-06T02:38:07;17.80;99.90
26909;DHT22;14477;51.038;4.588;2023-08-06T02:40:33;17.40;99.90
26909;DHT22;14477;51.038;4.588;2023-08-06T02:42:59;17.40;99.90
26909;DHT22;14477;51.038;4.588;2023-08-06T02:45:24;17.40;99.90
26909;DHT22;14477;51.038;4.588;2023-08-06T02:47:50;17.40;99.90
26909;DHT22;14477;51.038;4.588;2023-08-06T02:50:16;17.40;99.90
26909;DHT22;14477;51.038;4.588;2023-08-06T02:52:42;17.40;99.90
26909;DHT22;14477;51.038;4.588;2023-08-06T02:55:07;17.40;99.90
26909;DHT22;14477;51.038;4.588;2023-08-06T02:57:33;17.40;99.90
26909;DHT22;14477;51.038;4.588;2023-08-06T02:59:59;17.40;99.90
26909;DHT22;14477;51.038;4.588;2023-08-06T03:02:24;17.50;99.90
26909;DHT22;14477;51.038;4.588;2023-08-06T03:04:50;17.50;99.90
26909;DHT22;14477;51.038;4.588;2023-08-06T03:07:16;17.50;99.90
26909;DHT22;14477;51.038;4.588;2023-08-06T03:09:42;17.50;99.90
26909;DHT22;14477;51.038;4.588;2023-08-06T03:12:08;17.50;99.90
26909;DHT22;14477;51.038;4.588;2023-08-06T03:14:33;18.40;99.90
26909;DHT22;14477;51.038;4.588;2023-08-06T03:16:59;17.50;99.90
26909;DHT22;14477;51.038;4.588;2023-08-06T03:19:25;17.50;99.90
26909;DHT22;14477;51.038;4.588;2023-08-06T03:21:50;17.50;99.90
26909;DHT22;14477;51.038;4.588;2023-08-06T03:24:16;17.50;99.90
26909;DHT22;14477;51.038;4.588;2023-08-06T03:26:42;17.50;99.90
26909;DHT22;14477;51.038;4.588;2023-08-06T03:29:08;17.50;99.90
26909;DHT22;14477;51.038;4.588;2023-08-06T03:31:33;17.50;99.90
26909;DHT22;14477;51.038;4.588;2023-08-06T03:33:59;17.50;99.90
26909;DHT22;14477;51.038;4.588;2023-08-06T03:36:25;17.50;99.90
26909;DHT22;14477;51.038;4.588;2023-08-06T03:38:50;17.50;99.90
26909;DHT22;14477;51.038;4.588;2023-08-06T03:41:16;17.50;99.90
26909;DHT22;14477;51.038;4.588;2023-08-06T03:43:42;17.50;99.90
26909;DHT22;14477;51.038;4.588;2023-08-06T03:46:07;17.50;99.90
26909;DHT22;14477;51.038;4.588;2023-08-06T03:48:33;17.50;99.90
26909;DHT22;14477;51.038;4.588;2023-08-06T03:50:59;17.50;99.90
26909;DHT22;14477;51.038;4.588;2023-08-06T03:53:27;17.50;99.90
26909;DHT22;14477;51.038;4.588;2023-08-06T03:55:52;17.50;99.90
26909;DHT22;14477;51.038;4.588;2023-08-06T03:58:18;17.50;99.90
26909;DHT22;14477;51.038;4.588;2023-08-06T04:00:44;17.50;99.90
26909;DHT22;14477;51.038;4.588;2023-08-06T04:03:09;17.50;99.90
26909;DHT22;14477;51.038;4.588;2023-08-06T04:05:35;17.50;99.90
26909;DHT22;14477;51.038;4.588;2023-08-06T04:08:01;17.50;99.90
26909;DHT22;14477;51.038;4.588;2023-08-06T04:10:27;17.50;99.90
26909;DHT22;14477;51.038;4.588;2023-08-06T04:12:52;17.50;99.90
26909;DHT22;14477;51.038;4.588;2023-08-06T04:15:18;17.50;99.90
26909;DHT22;14477;51.038;4.588;2023-08-06T04:17:44;17.50;99.90
26909;DHT22;14477;51.038;4.588;2023-08-06T04:20:09;17.50;99.90
26909;DHT22;14477;51.038;4.588;2023-08-06T04:22:35;17.50;99.90
26909;DHT22;14477;51.038;4.588;2023-08-06T04:25:01;17.50;99.90
26909;DHT22;14477;51.038;4.588;2023-08-06T04:27:27;17.40;99.90
26909;DHT22;14477;51.038;4.588;2023-08-06T04:29:53;17.40;99.90
26909;DHT22;14477;51.038;4.588;2023-08-06T04:32:19;17.50;99.90
26909;DHT22;14477;51.038;4.588;2023-08-06T04:34:45;17.50;99.90
26909;DHT22;14477;51.038;4.588;2023-08-06T04:37:12;17.40;99.90
26909;DHT22;14477;51.038;4.588;2023-08-06T04:39:38;17.40;99.90
26909;DHT22;14477;51.038;4.588;2023-08-06T04:42:04;17.40;99.90
26909;DHT22;14477;51.038;4.588;2023-08-06T04:44:30;17.40;99.90
26909;DHT22;14477;51.038;4.588;2023-08-06T04:46:55;17.30;99.90
26909;DHT22;14477;51.038;4.588;2023-08-06T04:49:21;17.30;99.90
26909;DHT22;14477;51.038;4.588;2023-08-06T04:51:47;17.30;99.90
26909;DHT22;14477;51.038;4.588;2023-08-06T04:54:13;17.30;99.90
26909;DHT22;14477;51.038;4.588;2023-08-06T04:56:39;17.20;99.90
26909;DHT22;14477;51.038;4.588;2023-08-06T04:59:05;17.20;99.90
26909;DHT22;14477;51.038;4.588;2023-08-06T05:01:31;17.10;99.90
26909;DHT22;14477;51.038;4.588;2023-08-06T05:03:57;17.10;99.90
26909;DHT22;14477;51.038;4.588;2023-08-06T05:06:23;17.00;99.90
26909;DHT22;14477;51.038;4.588;2023-08-06T05:08:48;16.90;99.90
26909;DHT22;14477;51.038;4.588;2023-08-06T05:11:14;16.90;99.90
26909;DHT22;14477;51.038;4.588;2023-08-06T05:13:40;16.80;99.90
26909;DHT22;14477;51.038;4.588;2023-08-06T05:16:05;16.80;99.90
26909;DHT22;14477;51.038;4.588;2023-08-06T05:18:31;16.70;99.90
26909;DHT22;14477;51.038;4.588;2023-08-06T05:20:59;16.70;99.90
26909;DHT22;14477;51.038;4.588;2023-08-06T05:23:25;16.70;99.90
26909;DHT22;14477;51.038;4.588;2023-08-06T05:28:17;16.60;99.90
26909;DHT22;14477;51.038;4.588;2023-08-06T05:30:42;16.60;99.90
26909;DHT22;14477;51.038;4.588;2023-08-06T05:33:08;16.60;99.90
26909;DHT22;14477;51.038;4.588;2023-08-06T05:35:34;16.70;99.90
26909;DHT22;14477;51.038;4.588;2023-08-06T05:38:00;16.60;99.90
26909;DHT22;14477;51.038;4.588;2023-08-06T05:40:25;16.60;99.90
26909;DHT22;14477;51.038;4.588;2023-08-06T05:42:54;16.60;99.90
26909;DHT22;14477;51.038;4.588;2023-08-06T05:45:20;16.70;99.90
26909;DHT22;14477;51.038;4.588;2023-08-06T05:47:50;16.70;99.90
26909;DHT22;14477;51.038;4.588;2023-08-06T05:50:16;16.70;99.90
26909;DHT22;14477;51.038;4.588;2023-08-06T05:52:41;16.70;99.90
26909;DHT22;14477;51.038;4.588;2023-08-06T05:55:07;16.70;99.90
26909;DHT22;14477;51.038;4.588;2023-08-06T05:57:33;16.70;99.90
26909;DHT22;14477;51.038;4.588;2023-08-06T05:59:59;16.70;99.90
26909;DHT22;14477;51.038;4.588;2023-08-06T06:02:24;16.70;99.90
26909;DHT22;14477;51.038;4.588;2023-08-06T06:04:50;16.70;99.90
26909;DHT22;14477;51.038;4.588;2023-08-06T06:07:16;16.70;99.90
26909;DHT22;14477;51.038;4.588;2023-08-06T06:09:42;16.70;99.90
26909;DHT22;14477;51.038;4.588;2023-08-06T06:12:07;16.70;99.90
26909;DHT22;14477;51.038;4.588;2023-08-06T06:14:33;16.70;99.90
26909;DHT22;14477;51.038;4.588;2023-08-06T06:16:59;16.70;99.90
26909;DHT22;14477;51.038;4.588;2023-08-06T06:19:25;16.70;99.90
26909;DHT22;14477;51.038;4.588;2023-08-06T06:21:52;16.70;99.90
26909;DHT22;14477;51.038;4.588;2023-08-06T06:24:18;16.70;99.90
26909;DHT22;14477;51.038;4.588;2023-08-06T06:26:44;16.70;99.90
26909;DHT22;14477;51.038;4.588;2023-08-06T06:29:10;16.70;99.90
26909;DHT22;14477;51.038;4.588;2023-08-06T06:31:35;16.70;99.90
26909;DHT22;14477;51.038;4.588;2023-08-06T06:34:01;16.70;99.90
26909;DHT22;14477;51.038;4.588;2023-08-06T06:36:27;16.80;99.90
26909;DHT22;14477;51.038;4.588;2023-08-06T06:38:53;16.80;99.90
26909;DHT22;14477;51.038;4.588;2023-08-06T06:41:18;16.80;99.90
26909;DHT22;14477;51.038;4.588;2023-08-06T06:43:44;16.80;99.90
26909;DHT22;14477;51.038;4.588;2023-08-06T06:46:10;16.80;99.90
26909;DHT22;14477;51.038;4.588;2023-08-06T06:48:36;16.90;99.90
26909;DHT22;14477;51.038;4.588;2023-08-06T06:51:02;16.80;99.90
26909;DHT22;14477;51.038;4.588;2023-08-06T06:53:28;17.80;99.90
26909;DHT22;14477;51.038;4.588;2023-08-06T06:55:55;16.80;99.90
26909;DHT22;14477;51.038;4.588;2023-08-06T06:58:20;16.80;99.90
26909;DHT22;14477;51.038;4.588;2023-08-06T07:00:49;16.80;99.90
26909;DHT22;14477;51.038;4.588;2023-08-06T07:03:15;16.80;99.90
26909;DHT22;14477;51.038;4.588;2023-08-06T07:05:43;16.90;99.90
26909;DHT22;14477;51.038;4.588;2023-08-06T07:08:08;16.90;99.90
26909;DHT22;14477;51.038;4.588;2023-08-06T07:10:34;16.90;99.90
26909;DHT22;14477;51.038;4.588;2023-08-06T07:13:00;16.90;99.90
26909;DHT22;14477;51.038;4.588;2023-08-06T07:15:26;16.90;99.90
26909;DHT22;14477;51.038;4.588;2023-08-06T07:17:51;17.00;99.90
26909;DHT22;14477;51.038;4.588;2023-08-06T07:22:44;17.00;99.90
26909;DHT22;14477;51.038;4.588;2023-08-06T07:25:10;16.80;99.90
26909;DHT22;14477;51.038;4.588;2023-08-06T07:27:35;17.10;99.90
26909;DHT22;14477;51.038;4.588;2023-08-06T07:30:01;17.00;99.90
26909;DHT22;14477;51.038;4.588;2023-08-06T07:32:27;17.10;99.90
26909;DHT22;14477;51.038;4.588;2023-08-06T07:34:53;17.00;99.90
26909;DHT22;14477;51.038;4.588;2023-08-06T07:37:26;17.00;99.90
26909;DHT22;14477;51.038;4.588;2023-08-06T07:39:54;17.00;99.90
26909;DHT22;14477;51.038;4.588;2023-08-06T07:42:20;17.10;99.90
26909;DHT22;14477;51.038;4.588;2023-08-06T07:44:54;17.10;99.90
26909;DHT22;14477;51.038;4.588;2023-08-06T07:47:20;17.10;99.90
26909;DHT22;14477;51.038;4.588;2023-08-06T07:49:46;17.10;99.90
26909;DHT22;14477;51.038;4.588;2023-08-06T07:52:12;17.20;99.90
26909;DHT22;14477;51.038;4.588;2023-08-06T07:54:38;17.20;99.90
26909;DHT22;14477;51.038;4.588;2023-08-06T07:57:04;17.20;99.90
26909;DHT22;14477;51.038;4.588;2023-08-06T07:59:29;17.20;99.90
26909;DHT22;14477;51.038;4.588;2023-08-06T08:01:56;17.30;99.90
26909;DHT22;14477;51.038;4.588;2023-08-06T08:04:21;17.30;99.90
26909;DHT22;14477;51.038;4.588;2023-08-06T08:06:47;17.10;99.90
26909;DHT22;14477;51.038;4.588;2023-08-06T08:09:13;17.40;99.90
26909;DHT22;14477;51.038;4.588;2023-08-06T08:11:40;17.50;99.90
26909;DHT22;14477;51.038;4.588;2023-08-06T08:14:06;17.50;99.90
26909;DHT22;14477;51.038;4.588;2023-08-06T08:16:32;17.60;99.90
26909;DHT22;14477;51.038;4.588;2023-08-06T08:18:58;17.60;99.90
26909;DHT22;14477;51.038;4.588;2023-08-06T08:21:24;17.70;99.90
26909;DHT22;14477;51.038;4.588;2023-08-06T08:23:50;17.70;99.90
26909;DHT22;14477;51.038;4.588;2023-08-06T08:26:16;17.70;99.90
26909;DHT22;14477;51.038;4.588;2023-08-06T08:28:42;17.70;99.90
26909;DHT22;14477;51.038;4.588;2023-08-06T08:31:11;17.80;99.90
26909;DHT22;14477;51.038;4.588;2023-08-06T08:33:40;17.80;99.90
26909;DHT22;14477;51.038;4.588;2023-08-06T08:36:06;17.80;99.90
26909;DHT22;14477;51.038;4.588;2023-08-06T08:38:31;17.90;99.90
26909;DHT22;14477;51.038;4.588;2023-08-06T08:40:57;17.90;99.90
26909;DHT22;14477;51.038;4.588;2023-08-06T08:43:23;17.90;99.90
26909;DHT22;14477;51.038;4.588;2023-08-06T08:45:53;17.90;99.90
26909;DHT22;14477;51.038;4.588;2023-08-06T08:48:26;17.90;99.90
26909;DHT22;14477;51.038;4.588;2023-08-06T08:50:56;17.80;99.90
26909;DHT22;14477;51.038;4.588;2023-08-06T08:53:22;17.80;99.90
26909;DHT22;14477;51.038;4.588;2023-08-06T08:55:49;17.80;99.90
26909;DHT22;14477;51.038;4.588;2023-08-06T08:58:15;17.70;99.90
26909;DHT22;14477;51.038;4.588;2023-08-06T09:00:46;17.70;99.90
26909;DHT22;14477;51.038;4.588;2023-08-06T09:03:16;17.60;99.90
26909;DHT22;14477;51.038;4.588;2023-08-06T09:05:44;17.60;99.90
26909;DHT22;14477;51.038;4.588;2023-08-06T09:08:12;17.50;99.90
26909;DHT22;14477;51.038;4.588;2023-08-06T09:10:41;17.50;99.90
26909;DHT22;14477;51.038;4.588;2023-08-06T09:13:08;17.50;99.90
26909;DHT22;14477;51.038;4.588;2023-08-06T09:18:00;17.50;99.90
26909;DHT22;14477;51.038;4.588;2023-08-06T09:20:34;17.60;99.90
26909;DHT22;14477;51.038;4.588;2023-08-06T09:23:07;17.70;99.90
26909;DHT22;14477;51.038;4.588;2023-08-06T09:25:33;17.70;99.90
26909;DHT22;14477;51.038;4.588;2023-08-06T09:28:02;17.80;99.90
26909;DHT22;14477;51.038;4.588;2023-08-06T09:30:33;17.80;99.90
26909;DHT22;14477;51.038;4.588;2023-08-06T09:33:00;17.80;99.90
26909;DHT22;14477;51.038;4.588;2023-08-06T09:35:29;17.80;99.90
26909;DHT22;14477;51.038;4.588;2023-08-06T09:37:56;17.90;99.90
26909;DHT22;14477;51.038;4.588;2023-08-06T09:40:32;17.90;99.90
26909;DHT22;14477;51.038;4.588;2023-08-06T09:42:58;17.80;99.90
26909;DHT22;14477;51.038;4.588;2023-08-06T09:45:35;17.90;99.90
26909;DHT22;14477;51.038;4.588;2023-08-06T09:48:06;17.80;99.90
26909;DHT22;14477;51.038;4.588;2023-08-06T09:50:34;17.80;99.90
26909;DHT22;14477;51.038;4.588;2023-08-06T09:53:07;17.70;99.90
26909;DHT22;14477;51.038;4.588;2023-08-06T09:55:34;17.70;99.90
26909;DHT22;14477;51.038;4.588;2023-08-06T09:58:01;17.70;99.90
26909;DHT22;14477;51.038;4.588;2023-08-06T10:00:28;17.70;99.90
26909;DHT22;14477;51.038;4.588;2023-08-06T10:03:00;17.70;99.90
26909;DHT22;14477;51.038;4.588;2023-08-06T10:05:26;17.60;99.90
26909;DHT22;14477;51.038;4.588;2023-08-06T10:07:53;17.60;99.90
26909;DHT22;14477;51.038;4.588;2023-08-06T10:10:19;17.60;99.90
26909;DHT22;14477;51.038;4.588;2023-08-06T10:12:52;17.60;99.90
26909;DHT22;14477;51.038;4.588;2023-08-06T10:15:26;17.60;99.90
26909;DHT22;14477;51.038;4.588;2023-08-06T10:17:56;17.60;99.90
26909;DHT22;14477;51.038;4.588;2023-08-06T10:20:22;17.60;99.90
26909;DHT22;14477;51.038;4.588;2023-08-06T10:23:14;17.60;99.90
26909;DHT22;14477;51.038;4.588;2023-08-06T10:25:41;17.60;99.90
26909;DHT22;14477;51.038;4.588;2023-08-06T10:28:09;17.60;99.90
26909;DHT22;14477;51.038;4.588;2023-08-06T10:30:45;17.60;99.90
26909;DHT22;14477;51.038;4.588;2023-08-06T10:33:11;17.60;99.90
26909;DHT22;14477;51.038;4.588;2023-08-06T10:38:11;17.60;99.90
26909;DHT22;14477;51.038;4.588;2023-08-06T10:40:40;17.70;99.90
26909;DHT22;14477;51.038;4.588;2023-08-06T10:43:06;17.60;99.90
26909;DHT22;14477;51.038;4.588;2023-08-06T10:45:35;17.60;99.90
26909;DHT22;14477;51.038;4.588;2023-08-06T10:48:01;17.70;99.90
26909;DHT22;14477;51.038;4.588;2023-08-06T10:50:27;17.60;99.90
26909;DHT22;14477;51.038;4.588;2023-08-06T10:52:53;17.60;99.90
26909;DHT22;14477;51.038;4.588;2023-08-06T10:55:37;17.60;99.90
26909;DHT22;14477;51.038;4.588;2023-08-06T10:58:03;17.70;99.90
26909;DHT22;14477;51.038;4.588;2023-08-06T11:00:29;17.70;99.90
26909;DHT22;14477;51.038;4.588;2023-08-06T11:02:55;17.70;99.90
26909;DHT22;14477;51.038;4.588;2023-08-06T11:05:21;17.60;99.90
26909;DHT22;14477;51.038;4.588;2023-08-06T11:07:47;17.70;99.90
26909;DHT22;14477;51.038;4.588;2023-08-06T11:10:14;17.70;99.90
26909;DHT22;14477;51.038;4.588;2023-08-06T11:12:40;17.80;99.90
26909;DHT22;14477;51.038;4.588;2023-08-06T11:15:07;17.90;99.90
26909;DHT22;14477;51.038;4.588;2023-08-06T11:17:34;18.00;99.90
26909;DHT22;14477;51.038;4.588;2023-08-06T11:20:04;18.10;99.90
26909;DHT22;14477;51.038;4.588;2023-08-06T11:22:30;18.20;99.90
26909;DHT22;14477;51.038;4.588;2023-08-06T11:24:57;18.20;99.90
26909;DHT22;14477;51.038;4.588;2023-08-06T11:27:23;18.30;99.90
26909;DHT22;14477;51.038;4.588;2023-08-06T11:29:48;18.20;99.90
26909;DHT22;14477;51.038;4.588;2023-08-06T11:32:14;18.20;99.90
26909;DHT22;14477;51.038;4.588;2023-08-06T11:34:40;18.20;99.90
26909;DHT22;14477;51.038;4.588;2023-08-06T11:37:07;18.10;99.90
26909;DHT22;14477;51.038;4.588;2023-08-06T11:39:36;18.10;99.90
26909;DHT22;14477;51.038;4.588;2023-08-06T11:42:03;18.00;99.90
26909;DHT22;14477;51.038;4.588;2023-08-06T11:44:31;18.00;99.90
26909;DHT22;14477;51.038;4.588;2023-08-06T11:47:01;18.00;99.90
26909;DHT22;14477;51.038;4.588;2023-08-06T11:49:40;18.00;99.90
26909;DHT22;14477;51.038;4.588;2023-08-06T11:52:25;18.00;99.90
26909;DHT22;14477;51.038;4.588;2023-08-06T11:57:33;17.70;99.90
26909;DHT22;14477;51.038;4.588;2023-08-06T12:00:04;18.00;99.90
26909;DHT22;14477;51.038;4.588;2023-08-06T12:02:34;18.00;99.90
26909;DHT22;14477;51.038;4.588;2023-08-06T12:05:20;17.40;99.90
26909;DHT22;14477;51.038;4.588;2023-08-06T12:07:50;18.10;99.90
26909;DHT22;14477;51.038;4.588;2023-08-06T12:10:17;18.00;99.90
26909;DHT22;14477;51.038;4.588;2023-08-06T12:12:43;18.40;99.90
26909;DHT22;14477;51.038;4.588;2023-08-06T12:15:09;18.00;99.90
26909;DHT22;14477;51.038;4.588;2023-08-06T12:17:36;18.10;99.90
26909;DHT22;14477;51.038;4.588;2023-08-06T12:20:03;18.00;99.90
26909;DHT22;14477;51.038;4.588;2023-08-06T12:22:32;18.00;99.90
26909;DHT22;14477;51.038;4.588;2023-08-06T12:25:04;18.00;99.90
26909;DHT22;14477;51.038;4.588;2023-08-06T12:27:37;17.90;99.90
26909;DHT22;14477;51.038;4.588;2023-08-06T12:30:04;17.90;99.90
26909;DHT22;14477;51.038;4.588;2023-08-06T12:32:30;17.80;99.90
26909;DHT22;14477;51.038;4.588;2023-08-06T12:34:56;17.80;99.90
26909;DHT22;14477;51.038;4.588;2023-08-06T12:37:25;17.80;99.90
26909;DHT22;14477;51.038;4.588;2023-08-06T12:39:51;17.70;99.90
26909;DHT22;14477;51.038;4.588;2023-08-06T12:42:17;17.70;99.90
26909;DHT22;14477;51.038;4.588;2023-08-06T12:44:43;17.70;99.90
26909;DHT22;14477;51.038;4.588;2023-08-06T12:47:08;17.60;99.90
26909;DHT22;14477;51.038;4.588;2023-08-06T12:49:34;17.60;99.90
26909;DHT22;14477;51.038;4.588;2023-08-06T12:52:00;17.60;99.90
26909;DHT22;14477;51.038;4.588;2023-08-06T12:54:27;17.60;99.90
26909;DHT22;14477;51.038;4.588;2023-08-06T12:56:52;17.60;99.90
26909;DHT22;14477;51.038;4.588;2023-08-06T12:59:19;17.60;99.90
26909;DHT22;14477;51.038;4.588;2023-08-06T13:01:45;17.60;99.90
26909;DHT22;14477;51.038;4.588;2023-08-06T13:04:11;17.60;99.90
26909;DHT22;14477;51.038;4.588;2023-08-06T13:06:37;17.50;99.90
26909;DHT22;14477;51.038;4.588;2023-08-06T13:09:11;17.60;99.90
26909;DHT22;14477;51.038;4.588;2023-08-06T13:11:39;17.60;99.90
26909;DHT22;14477;51.038;4.588;2023-08-06T13:14:07;17.50;99.90
26909;DHT22;14477;51.038;4.588;2023-08-06T13:16:33;17.60;99.90
26909;DHT22;14477;51.038;4.588;2023-08-06T13:19:03;17.50;99.90
26909;DHT22;14477;51.038;4.588;2023-08-06T13:21:34;17.60;99.90
26909;DHT22;14477;51.038;4.588;2023-08-06T13:24:03;17.60;99.90
26909;DHT22;14477;51.038;4.588;2023-08-06T13:26:29;17.60;99.90
26909;DHT22;14477;51.038;4.588;2023-08-06T13:28:57;17.50;99.90
26909;DHT22;14477;51.038;4.588;2023-08-06T13:31:24;17.50;99.90
26909;DHT22;14477;51.038;4.588;2023-08-06T13:33:49;17.50;99.90
26909;DHT22;14477;51.038;4.588;2023-08-06T13:36:19;17.40;99.90
26909;DHT22;14477;51.038;4.588;2023-08-06T13:38:44;17.40;99.90
26909;DHT22;14477;51.038;4.588;2023-08-06T13:41:10;17.30;99.90
26909;DHT22;14477;51.038;4.588;2023-08-06T13:43:36;17.30;99.90
26909;DHT22;14477;51.038;4.588;2023-08-06T13:46:01;18.70;99.90
26909;DHT22;14477;51.038;4.588;2023-08-06T13:48:27;17.20;99.90
26909;DHT22;14477;51.038;4.588;2023-08-06T13:50:53;17.20;99.90
26909;DHT22;14477;51.038;4.588;2023-08-06T13:53:19;17.20;99.90
26909;DHT22;14477;51.038;4.588;2023-08-06T13:55:45;17.20;99.90
26909;DHT22;14477;51.038;4.588;2023-08-06T13:58:10;17.20;99.90
26909;DHT22;14477;51.038;4.588;2023-08-06T14:00:36;17.20;99.90
26909;DHT22;14477;51.038;4.588;2023-08-06T14:03:02;17.20;99.90
26909;DHT22;14477;51.038;4.588;2023-08-06T14:05:28;17.30;99.90
26909;DHT22;14477;51.038;4.588;2023-08-06T14:07:53;17.30;99.90
26909;DHT22;14477;51.038;4.588;2023-08-06T14:10:19;17.20;99.90
26909;DHT22;14477;51.038;4.588;2023-08-06T14:15:11;17.20;99.90
26909;DHT22;14477;51.038;4.588;2023-08-06T14:17:37;17.30;99.90
26909;DHT22;14477;51.038;4.588;2023-08-06T14:20:04;17.30;99.90
26909;DHT22;14477;51.038;4.588;2023-08-06T14:22:33;17.30;99.90
26909;DHT22;14477;51.038;4.588;2023-08-06T14:27:25;17.30;99.90
26909;DHT22;14477;51.038;4.588;2023-08-06T14:29:51;17.40;99.90
26909;DHT22;14477;51.038;4.588;2023-08-06T14:32:17;17.40;99.90
26909;DHT22;14477;51.038;4.588;2023-08-06T14:34:46;17.40;99.90
26909;DHT22;14477;51.038;4.588;2023-08-06T14:37:12;17.50;99.90
26909;DHT22;14477;51.038;4.588;2023-08-06T14:39:38;17.60;99.90
26909;DHT22;14477;51.038;4.588;2023-08-06T14:42:05;17.60;99.90
26909;DHT22;14477;51.038;4.588;2023-08-06T14:44:31;17.60;99.90
26909;DHT22;14477;51.038;4.588;2023-08-06T14:46:56;17.70;99.90
26909;DHT22;14477;51.038;4.588;2023-08-06T14:49:23;17.70;99.90
26909;DHT22;14477;51.038;4.588;2023-08-06T14:51:49;17.70;99.90
26909;DHT22;14477;51.038;4.588;2023-08-06T14:54:15;17.70;99.90
26909;DHT22;14477;51.038;4.588;2023-08-06T14:56:40;17.70;99.90
26909;DHT22;14477;51.038;4.588;2023-08-06T14:59:06;17.80;99.90
26909;DHT22;14477;51.038;4.588;2023-08-06T15:01:32;17.70;99.90
26909;DHT22;14477;51.038;4.588;2023-08-06T15:03:58;17.70;99.90
26909;DHT22;14477;51.038;4.588;2023-08-06T15:06:24;17.80;99.90
26909;DHT22;14477;51.038;4.588;2023-08-06T15:08:50;17.80;99.90
26909;DHT22;14477;51.038;4.588;2023-08-06T15:11:15;17.80;99.90
26909;DHT22;14477;51.038;4.588;2023-08-06T15:13:41;17.90;99.90
26909;DHT22;14477;51.038;4.588;2023-08-06T15:16:07;17.90;99.90
26909;DHT22;14477;51.038;4.588;2023-08-06T15:18:33;18.00;99.90
26909;DHT22;14477;51.038;4.588;2023-08-06T15:20:58;18.00;99.90
26909;DHT22;14477;51.038;4.588;2023-08-06T15:23:24;18.10;99.90
26909;DHT22;14477;51.038;4.588;2023-08-06T15:25:50;18.20;99.90
26909;DHT22;14477;51.038;4.588;2023-08-06T15:28:16;18.20;99.90
26909;DHT22;14477;51.038;4.588;2023-08-06T15:30:50;15.50;99.90
26909;DHT22;14477;51.038;4.588;2023-08-06T15:33:19;18.30;99.90
26909;DHT22;14477;51.038;4.588;2023-08-06T15:35:45;18.40;99.90
26909;DHT22;14477;51.038;4.588;2023-08-06T15:38:11;18.40;99.90
26909;DHT22;14477;51.038;4.588;2023-08-06T15:40:36;18.40;99.90
26909;DHT22;14477;51.038;4.588;2023-08-06T15:43:02;18.40;99.90
26909;DHT22;14477;51.038;4.588;2023-08-06T15:45:28;18.40;99.90
26909;DHT22;14477;51.038;4.588;2023-08-06T15:50:22;18.40;99.90